This is the latest recevied weather packets stored in our database for station/object OK2ZAW-23. If no packets are shown the sender has not sent any weather packets the latest 10 day(s).
| Time | Temp. | Humidity | Pressure | Rain* | Wind** | Luminosity | Snow |
|---|---|---|---|---|---|---|---|
| 1777379280 | 18.33° C | 27% | 1017.3 hPa | - | - | 336 W/m² | - |
| 1777378966 | 18.33° C | 28% | 1017.3 hPa | - | - | 336 W/m² | - |
| 1777378652 | 17.78° C | 28% | 1017.4 hPa | - | - | 335 W/m² | - |
| 1777377711 | 17.78° C | 29% | 1017.4 hPa | - | - | 335 W/m² | - |
| 1777377396 | 17.22° C | 30% | 1017.4 hPa | - | - | 336 W/m² | - |
| 1777376769 | 16.11° C | 30% | 1017.4 hPa | - | - | 335 W/m² | - |
| 1777375827 | 16.11° C | 29% | 1017.6 hPa | - | - | 335 W/m² | - |
| 1777375514 | 16.11° C | 30% | 1017.7 hPa | - | - | 335 W/m² | - |
| 1777375200 | 16.11° C | 28% | 1017.8 hPa | - | - | 335 W/m² | - |
| 1777374258 | 16.67° C | 30% | 1017.8 hPa | - | - | 336 W/m² | - |
| 1777373003 | 16.11° C | 31% | 1017.8 hPa | - | - | 335 W/m² | - |
| 1777372689 | 16.11° C | 32% | 1017.9 hPa | - | - | 335 W/m² | - |
| 1777372376 | 16.11° C | 33% | 1017.9 hPa | - | - | 335 W/m² | - |
| 1777371748 | 16.11° C | 33% | 1018 hPa | - | - | 335 W/m² | - |
| 1777371434 | 15.56° C | 33% | 1018 hPa | - | - | 336 W/m² | - |
| 1777370807 | 15.56° C | 34% | 1018 hPa | - | - | 335 W/m² | - |
| 1777370179 | 15.56° C | 34% | 1018 hPa | - | - | 335 W/m² | - |
| 1777369552 | 15.56° C | 35% | 1018.1 hPa | - | - | 335 W/m² | - |
| 1777369238 | 15.56° C | 36% | 1018.2 hPa | - | - | 336 W/m² | - |
| 1777368298 | 15° C | 36% | 1018.3 hPa | - | - | 335 W/m² | - |
| 1777367670 | 14.44° C | 36% | 1018.4 hPa | - | - | 335 W/m² | - |
| 1777367043 | 14.44° C | 39% | 1018.3 hPa | - | - | 335 W/m² | - |
| 1777366416 | 14.44° C | 38% | 1018.3 hPa | - | - | 335 W/m² | - |
| 1777365475 | 13.33° C | 40% | 1018.2 hPa | - | - | 335 W/m² | - |
| 1777364848 | 13.33° C | 41% | 1018.3 hPa | - | - | 336 W/m² | - |
* Rain since midnight (hover to see other rain measurements)
** Current wind speed in m/s (hover to see current wind gust speed)